sensor_id;sensor_type;location;lat;lon;timestamp;P1;durP1;ratioP1;P2;durP2;ratioP2
18875;SDS011;9570;50.854;13.778;2023-10-31T00:01:08;4.90;;;4.03;;
18875;SDS011;9570;50.854;13.778;2023-10-31T00:03:33;9.33;;;4.17;;
18875;SDS011;9570;50.854;13.778;2023-10-31T00:05:59;6.00;;;4.20;;
18875;SDS011;9570;50.854;13.778;2023-10-31T00:08:24;7.93;;;3.73;;
18875;SDS011;9570;50.854;13.778;2023-10-31T00:10:50;6.30;;;4.47;;
18875;SDS011;9570;50.854;13.778;2023-10-31T00:13:15;10.13;;;5.07;;
18875;SDS011;9570;50.854;13.778;2023-10-31T00:15:41;4.97;;;4.40;;
18875;SDS011;9570;50.854;13.778;2023-10-31T00:18:06;7.63;;;4.03;;
18875;SDS011;9570;50.854;13.778;2023-10-31T00:20:32;8.80;;;4.07;;
18875;SDS011;9570;50.854;13.778;2023-10-31T00:22:57;5.90;;;3.80;;
18875;SDS011;9570;50.854;13.778;2023-10-31T00:25:23;6.10;;;4.07;;
18875;SDS011;9570;50.854;13.778;2023-10-31T00:27:48;5.17;;;4.23;;
18875;SDS011;9570;50.854;13.778;2023-10-31T00:30:14;6.50;;;4.20;;
18875;SDS011;9570;50.854;13.778;2023-10-31T00:32:39;6.67;;;4.27;;
18875;SDS011;9570;50.854;13.778;2023-10-31T00:35:05;9.90;;;4.60;;
18875;SDS011;9570;50.854;13.778;2023-10-31T00:37:31;6.30;;;3.90;;
18875;SDS011;9570;50.854;13.778;2023-10-31T00:39:56;8.23;;;4.60;;
18875;SDS011;9570;50.854;13.778;2023-10-31T00:42:22;6.43;;;4.57;;
18875;SDS011;9570;50.854;13.778;2023-10-31T00:44:47;6.60;;;4.63;;
18875;SDS011;9570;50.854;13.778;2023-10-31T00:47:13;8.20;;;4.80;;
18875;SDS011;9570;50.854;13.778;2023-10-31T00:49:39;8.30;;;4.63;;
18875;SDS011;9570;50.854;13.778;2023-10-31T00:52:05;8.30;;;4.43;;
18875;SDS011;9570;50.854;13.778;2023-10-31T00:54:30;9.23;;;5.00;;
18875;SDS011;9570;50.854;13.778;2023-10-31T00:56:56;11.13;;;4.67;;
18875;SDS011;9570;50.854;13.778;2023-10-31T00:59:21;5.80;;;4.40;;
18875;SDS011;9570;50.854;13.778;2023-10-31T01:01:47;7.97;;;4.83;;
18875;SDS011;9570;50.854;13.778;2023-10-31T01:04:12;7.53;;;4.90;;
18875;SDS011;9570;50.854;13.778;2023-10-31T01:06:41;5.60;;;4.93;;
18875;SDS011;9570;50.854;13.778;2023-10-31T01:09:07;5.23;;;4.73;;
18875;SDS011;9570;50.854;13.778;2023-10-31T01:11:32;8.20;;;5.17;;
18875;SDS011;9570;50.854;13.778;2023-10-31T01:13:58;6.07;;;5.27;;
18875;SDS011;9570;50.854;13.778;2023-10-31T01:16:23;7.53;;;5.30;;
18875;SDS011;9570;50.854;13.778;2023-10-31T01:18:49;7.47;;;5.20;;
18875;SDS011;9570;50.854;13.778;2023-10-31T01:21:14;7.43;;;5.40;;
18875;SDS011;9570;50.854;13.778;2023-10-31T01:23:40;8.57;;;5.57;;
18875;SDS011;9570;50.854;13.778;2023-10-31T01:26:05;7.50;;;5.20;;
18875;SDS011;9570;50.854;13.778;2023-10-31T01:28:31;9.73;;;5.97;;
18875;SDS011;9570;50.854;13.778;2023-10-31T01:30:56;7.53;;;5.40;;
18875;SDS011;9570;50.854;13.778;2023-10-31T01:33:22;9.00;;;5.90;;
18875;SDS011;9570;50.854;13.778;2023-10-31T01:35:47;5.93;;;5.33;;
18875;SDS011;9570;50.854;13.778;2023-10-31T01:38:13;7.13;;;5.73;;
18875;SDS011;9570;50.854;13.778;2023-10-31T01:40:38;6.83;;;5.40;;
18875;SDS011;9570;50.854;13.778;2023-10-31T01:43:04;8.90;;;5.80;;
18875;SDS011;9570;50.854;13.778;2023-10-31T01:45:30;7.60;;;6.20;;
18875;SDS011;9570;50.854;13.778;2023-10-31T01:47:55;9.67;;;6.30;;
18875;SDS011;9570;50.854;13.778;2023-10-31T01:50:21;9.90;;;5.53;;
18875;SDS011;9570;50.854;13.778;2023-10-31T01:52:46;7.10;;;5.63;;
18875;SDS011;9570;50.854;13.778;2023-10-31T01:55:12;6.97;;;6.17;;
18875;SDS011;9570;50.854;13.778;2023-10-31T01:57:39;10.47;;;6.10;;
18875;SDS011;9570;50.854;13.778;2023-10-31T02:00:05;9.00;;;6.60;;
18875;SDS011;9570;50.854;13.778;2023-10-31T02:02:32;10.27;;;6.50;;
18875;SDS011;9570;50.854;13.778;2023-10-31T02:04:59;12.17;;;7.10;;
18875;SDS011;9570;50.854;13.778;2023-10-31T02:07:25;9.60;;;6.70;;
18875;SDS011;9570;50.854;13.778;2023-10-31T02:09:50;7.50;;;6.23;;
18875;SDS011;9570;50.854;13.778;2023-10-31T02:12:35;8.77;;;6.87;;
18875;SDS011;9570;50.854;13.778;2023-10-31T02:15:01;7.63;;;6.83;;
18875;SDS011;9570;50.854;13.778;2023-10-31T02:17:28;10.97;;;7.27;;
18875;SDS011;9570;50.854;13.778;2023-10-31T02:19:54;10.40;;;6.70;;
18875;SDS011;9570;50.854;13.778;2023-10-31T02:22:19;8.70;;;6.37;;
18875;SDS011;9570;50.854;13.778;2023-10-31T02:24:45;7.17;;;6.47;;
18875;SDS011;9570;50.854;13.778;2023-10-31T02:27:10;9.23;;;6.40;;
18875;SDS011;9570;50.854;13.778;2023-10-31T02:29:36;10.43;;;6.97;;
18875;SDS011;9570;50.854;13.778;2023-10-31T02:32:03;8.40;;;7.37;;
18875;SDS011;9570;50.854;13.778;2023-10-31T02:34:29;9.43;;;7.40;;
18875;SDS011;9570;50.854;13.778;2023-10-31T02:36:55;8.90;;;6.43;;
18875;SDS011;9570;50.854;13.778;2023-10-31T02:39:20;9.50;;;7.10;;
18875;SDS011;9570;50.854;13.778;2023-10-31T02:41:46;9.40;;;6.87;;
18875;SDS011;9570;50.854;13.778;2023-10-31T02:44:11;8.73;;;6.73;;
18875;SDS011;9570;50.854;13.778;2023-10-31T02:46:37;8.87;;;6.83;;
18875;SDS011;9570;50.854;13.778;2023-10-31T02:49:03;8.03;;;6.67;;
18875;SDS011;9570;50.854;13.778;2023-10-31T02:51:28;9.77;;;6.20;;
18875;SDS011;9570;50.854;13.778;2023-10-31T02:53:54;8.63;;;6.90;;
18875;SDS011;9570;50.854;13.778;2023-10-31T02:56:19;8.90;;;6.87;;
18875;SDS011;9570;50.854;13.778;2023-10-31T02:58:45;10.23;;;7.00;;
18875;SDS011;9570;50.854;13.778;2023-10-31T03:01:11;9.50;;;8.10;;
18875;SDS011;9570;50.854;13.778;2023-10-31T03:03:36;9.20;;;8.30;;
18875;SDS011;9570;50.854;13.778;2023-10-31T03:06:02;10.80;;;8.10;;
18875;SDS011;9570;50.854;13.778;2023-10-31T03:08:29;10.23;;;8.17;;
18875;SDS011;9570;50.854;13.778;2023-10-31T03:10:54;11.87;;;8.83;;
18875;SDS011;9570;50.854;13.778;2023-10-31T03:13:20;9.60;;;7.97;;
18875;SDS011;9570;50.854;13.778;2023-10-31T03:15:46;10.60;;;7.80;;
18875;SDS011;9570;50.854;13.778;2023-10-31T03:18:12;9.03;;;7.53;;
18875;SDS011;9570;50.854;13.778;2023-10-31T03:20:39;8.23;;;6.93;;
18875;SDS011;9570;50.854;13.778;2023-10-31T03:23:05;6.93;;;6.23;;
18875;SDS011;9570;50.854;13.778;2023-10-31T03:25:31;9.83;;;6.83;;
18875;SDS011;9570;50.854;13.778;2023-10-31T03:27:56;7.50;;;5.93;;
18875;SDS011;9570;50.854;13.778;2023-10-31T03:30:22;7.83;;;6.67;;
18875;SDS011;9570;50.854;13.778;2023-10-31T03:32:47;6.57;;;4.80;;
18875;SDS011;9570;50.854;13.778;2023-10-31T03:35:13;4.80;;;4.07;;
18875;SDS011;9570;50.854;13.778;2023-10-31T03:37:39;5.83;;;4.67;;
18875;SDS011;9570;50.854;13.778;2023-10-31T03:40:07;4.30;;;3.77;;
18875;SDS011;9570;50.854;13.778;2023-10-31T03:42:35;5.37;;;3.83;;
18875;SDS011;9570;50.854;13.778;2023-10-31T03:45:01;4.17;;;3.60;;
18875;SDS011;9570;50.854;13.778;2023-10-31T03:47:27;4.57;;;3.47;;
18875;SDS011;9570;50.854;13.778;2023-10-31T03:49:52;4.00;;;3.20;;
18875;SDS011;9570;50.854;13.778;2023-10-31T03:52:18;4.77;;;3.70;;
18875;SDS011;9570;50.854;13.778;2023-10-31T03:54:44;5.00;;;2.97;;
18875;SDS011;9570;50.854;13.778;2023-10-31T03:57:10;3.80;;;3.40;;
18875;SDS011;9570;50.854;13.778;2023-10-31T03:59:37;4.17;;;3.00;;
18875;SDS011;9570;50.854;13.778;2023-10-31T04:02:02;3.43;;;3.00;;
18875;SDS011;9570;50.854;13.778;2023-10-31T04:04:28;3.60;;;2.77;;
18875;SDS011;9570;50.854;13.778;2023-10-31T04:06:53;3.20;;;2.70;;
18875;SDS011;9570;50.854;13.778;2023-10-31T04:09:19;4.53;;;2.70;;
18875;SDS011;9570;50.854;13.778;2023-10-31T04:11:44;2.83;;;2.57;;
18875;SDS011;9570;50.854;13.778;2023-10-31T04:14:10;5.00;;;2.30;;
18875;SDS011;9570;50.854;13.778;2023-10-31T04:16:39;2.87;;;2.10;;
18875;SDS011;9570;50.854;13.778;2023-10-31T04:19:10;2.47;;;2.17;;
18875;SDS011;9570;50.854;13.778;2023-10-31T04:21:37;2.17;;;1.97;;
18875;SDS011;9570;50.854;13.778;2023-10-31T04:24:03;2.10;;;1.87;;
18875;SDS011;9570;50.854;13.778;2023-10-31T04:26:29;1.73;;;1.63;;
18875;SDS011;9570;50.854;13.778;2023-10-31T04:28:54;2.13;;;1.90;;
18875;SDS011;9570;50.854;13.778;2023-10-31T04:31:20;2.07;;;1.87;;
18875;SDS011;9570;50.854;13.778;2023-10-31T04:33:45;1.63;;;1.50;;
18875;SDS011;9570;50.854;13.778;2023-10-31T04:36:11;3.23;;;1.70;;
18875;SDS011;9570;50.854;13.778;2023-10-31T04:38:36;1.53;;;1.40;;
18875;SDS011;9570;50.854;13.778;2023-10-31T04:41:03;2.00;;;1.53;;
18875;SDS011;9570;50.854;13.778;2023-10-31T04:43:28;1.67;;;1.53;;
18875;SDS011;9570;50.854;13.778;2023-10-31T04:45:54;1.60;;;1.20;;
18875;SDS011;9570;50.854;13.778;2023-10-31T04:48:19;1.77;;;1.37;;
18875;SDS011;9570;50.854;13.778;2023-10-31T04:50:45;1.80;;;1.20;;
18875;SDS011;9570;50.854;13.778;2023-10-31T04:53:10;1.37;;;1.20;;
18875;SDS011;9570;50.854;13.778;2023-10-31T04:55:36;1.07;;;1.00;;
18875;SDS011;9570;50.854;13.778;2023-10-31T04:58:02;1.20;;;1.10;;
18875;SDS011;9570;50.854;13.778;2023-10-31T05:00:27;1.20;;;1.10;;
18875;SDS011;9570;50.854;13.778;2023-10-31T05:02:53;1.73;;;1.00;;
18875;SDS011;9570;50.854;13.778;2023-10-31T05:05:18;1.13;;;1.03;;
18875;SDS011;9570;50.854;13.778;2023-10-31T05:07:44;3.67;;;1.10;;
18875;SDS011;9570;50.854;13.778;2023-10-31T05:10:10;1.10;;;1.00;;
18875;SDS011;9570;50.854;13.778;2023-10-31T05:12:35;2.77;;;1.47;;
18875;SDS011;9570;50.854;13.778;2023-10-31T05:15:01;1.30;;;1.20;;
18875;SDS011;9570;50.854;13.778;2023-10-31T05:17:27;3.53;;;1.80;;
18875;SDS011;9570;50.854;13.778;2023-10-31T05:19:53;4.40;;;1.77;;
18875;SDS011;9570;50.854;13.778;2023-10-31T05:22:18;2.57;;;1.70;;
18875;SDS011;9570;50.854;13.778;2023-10-31T05:24:44;1.33;;;1.23;;
18875;SDS011;9570;50.854;13.778;2023-10-31T05:27:09;1.30;;;1.20;;
18875;SDS011;9570;50.854;13.778;2023-10-31T05:29:35;3.00;;;1.07;;
18875;SDS011;9570;50.854;13.778;2023-10-31T05:32:02;1.20;;;1.10;;
18875;SDS011;9570;50.854;13.778;2023-10-31T05:34:28;1.17;;;1.00;;
18875;SDS011;9570;50.854;13.778;2023-10-31T05:36:54;1.87;;;0.90;;
18875;SDS011;9570;50.854;13.778;2023-10-31T05:39:19;0.80;;;0.80;;
18875;SDS011;9570;50.854;13.778;2023-10-31T05:41:45;1.97;;;0.80;;
18875;SDS011;9570;50.854;13.778;2023-10-31T05:44:10;1.80;;;1.00;;
18875;SDS011;9570;50.854;13.778;2023-10-31T05:46:39;0.80;;;0.80;;
18875;SDS011;9570;50.854;13.778;2023-10-31T05:49:08;1.07;;;0.90;;
18875;SDS011;9570;50.854;13.778;2023-10-31T05:51:33;1.10;;;1.00;;
18875;SDS011;9570;50.854;13.778;2023-10-31T05:54:00;0.80;;;0.80;;
18875;SDS011;9570;50.854;13.778;2023-10-31T05:56:26;3.53;;;1.00;;
18875;SDS011;9570;50.854;13.778;2023-10-31T05:58:51;1.17;;;1.00;;
18875;SDS011;9570;50.854;13.778;2023-10-31T06:01:17;0.77;;;0.77;;
18875;SDS011;9570;50.854;13.778;2023-10-31T06:03:42;1.07;;;0.70;;
18875;SDS011;9570;50.854;13.778;2023-10-31T06:06:09;0.77;;;0.77;;
18875;SDS011;9570;50.854;13.778;2023-10-31T06:08:36;0.80;;;0.73;;
18875;SDS011;9570;50.854;13.778;2023-10-31T06:11:02;1.00;;;0.90;;
18875;SDS011;9570;50.854;13.778;2023-10-31T06:13:28;0.77;;;0.77;;
18875;SDS011;9570;50.854;13.778;2023-10-31T06:15:56;1.07;;;0.97;;
18875;SDS011;9570;50.854;13.778;2023-10-31T06:18:23;0.80;;;0.80;;
18875;SDS011;9570;50.854;13.778;2023-10-31T06:20:48;0.90;;;0.90;;
18875;SDS011;9570;50.854;13.778;2023-10-31T06:23:14;2.37;;;0.90;;
18875;SDS011;9570;50.854;13.778;2023-10-31T06:25:39;1.10;;;1.00;;
18875;SDS011;9570;50.854;13.778;2023-10-31T06:28:05;0.70;;;0.70;;
18875;SDS011;9570;50.854;13.778;2023-10-31T06:30:30;0.80;;;0.70;;
18875;SDS011;9570;50.854;13.778;2023-10-31T06:32:56;0.60;;;0.60;;
18875;SDS011;9570;50.854;13.778;2023-10-31T06:35:23;0.60;;;0.60;;
18875;SDS011;9570;50.854;13.778;2023-10-31T06:37:49;2.17;;;0.70;;
18875;SDS011;9570;50.854;13.778;2023-10-31T06:40:16;1.03;;;0.60;;
18875;SDS011;9570;50.854;13.778;2023-10-31T06:42:41;1.07;;;0.97;;
18875;SDS011;9570;50.854;13.778;2023-10-31T06:45:07;1.47;;;1.00;;
18875;SDS011;9570;50.854;13.778;2023-10-31T06:47:33;1.27;;;0.70;;
18875;SDS011;9570;50.854;13.778;2023-10-31T06:49:58;0.67;;;0.67;;
18875;SDS011;9570;50.854;13.778;2023-10-31T06:52:24;1.37;;;0.90;;
18875;SDS011;9570;50.854;13.778;2023-10-31T06:54:49;0.73;;;0.73;;
18875;SDS011;9570;50.854;13.778;2023-10-31T06:57:15;0.80;;;0.80;;
18875;SDS011;9570;50.854;13.778;2023-10-31T06:59:41;1.43;;;0.70;;
18875;SDS011;9570;50.854;13.778;2023-10-31T07:02:07;0.77;;;0.77;;
18875;SDS011;9570;50.854;13.778;2023-10-31T07:04:32;1.73;;;0.80;;
18875;SDS011;9570;50.854;13.778;2023-10-31T07:06:58;0.80;;;0.77;;
18875;SDS011;9570;50.854;13.778;2023-10-31T07:09:24;1.17;;;0.77;;
18875;SDS011;9570;50.854;13.778;2023-10-31T07:11:50;0.83;;;0.80;;
18875;SDS011;9570;50.854;13.778;2023-10-31T07:14:16;1.57;;;0.90;;
18875;SDS011;9570;50.854;13.778;2023-10-31T07:16:42;1.30;;;0.80;;
18875;SDS011;9570;50.854;13.778;2023-10-31T07:19:09;1.80;;;0.90;;
18875;SDS011;9570;50.854;13.778;2023-10-31T07:21:35;0.87;;;0.80;;
18875;SDS011;9570;50.854;13.778;2023-10-31T07:24:00;1.33;;;0.77;;
18875;SDS011;9570;50.854;13.778;2023-10-31T07:26:26;0.73;;;0.70;;
18875;SDS011;9570;50.854;13.778;2023-10-31T07:28:52;0.87;;;0.80;;
18875;SDS011;9570;50.854;13.778;2023-10-31T07:31:18;2.33;;;0.80;;
18875;SDS011;9570;50.854;13.778;2023-10-31T07:33:44;0.70;;;0.70;;
18875;SDS011;9570;50.854;13.778;2023-10-31T07:36:10;1.03;;;0.60;;
18875;SDS011;9570;50.854;13.778;2023-10-31T07:38:35;0.60;;;0.60;;
18875;SDS011;9570;50.854;13.778;2023-10-31T07:41:01;0.70;;;0.70;;
18875;SDS011;9570;50.854;13.778;2023-10-31T07:43:27;0.77;;;0.60;;
18875;SDS011;9570;50.854;13.778;2023-10-31T07:45:52;2.70;;;0.73;;
18875;SDS011;9570;50.854;13.778;2023-10-31T07:48:18;0.80;;;0.60;;
18875;SDS011;9570;50.854;13.778;2023-10-31T07:50:43;0.50;;;0.50;;
18875;SDS011;9570;50.854;13.778;2023-10-31T07:53:09;3.53;;;0.60;;
18875;SDS011;9570;50.854;13.778;2023-10-31T07:55:34;0.50;;;0.50;;
18875;SDS011;9570;50.854;13.778;2023-10-31T07:58:00;0.60;;;0.50;;
18875;SDS011;9570;50.854;13.778;2023-10-31T08:00:25;0.70;;;0.63;;
18875;SDS011;9570;50.854;13.778;2023-10-31T08:02:51;0.80;;;0.60;;
18875;SDS011;9570;50.854;13.778;2023-10-31T08:05:17;1.33;;;0.60;;
18875;SDS011;9570;50.854;13.778;2023-10-31T08:07:42;2.13;;;0.60;;
18875;SDS011;9570;50.854;13.778;2023-10-31T08:10:08;2.53;;;0.80;;
18875;SDS011;9570;50.854;13.778;2023-10-31T08:12:34;0.57;;;0.57;;
18875;SDS011;9570;50.854;13.778;2023-10-31T08:15:00;0.70;;;0.70;;
18875;SDS011;9570;50.854;13.778;2023-10-31T08:17:26;1.70;;;0.80;;
18875;SDS011;9570;50.854;13.778;2023-10-31T08:19:51;1.03;;;0.70;;
18875;SDS011;9570;50.854;13.778;2023-10-31T08:22:17;2.00;;;1.00;;
18875;SDS011;9570;50.854;13.778;2023-10-31T08:24:42;3.17;;;1.10;;
18875;SDS011;9570;50.854;13.778;2023-10-31T08:27:08;2.73;;;1.00;;
18875;SDS011;9570;50.854;13.778;2023-10-31T08:29:35;1.33;;;1.00;;
18875;SDS011;9570;50.854;13.778;2023-10-31T08:32:00;2.53;;;0.70;;
18875;SDS011;9570;50.854;13.778;2023-10-31T08:34:26;0.70;;;0.70;;
18875;SDS011;9570;50.854;13.778;2023-10-31T08:36:51;0.87;;;0.73;;
18875;SDS011;9570;50.854;13.778;2023-10-31T08:39:17;0.67;;;0.67;;
18875;SDS011;9570;50.854;13.778;2023-10-31T08:41:56;2.57;;;0.67;;
18875;SDS011;9570;50.854;13.778;2023-10-31T08:44:22;1.70;;;0.70;;
18875;SDS011;9570;50.854;13.778;2023-10-31T08:46:48;1.13;;;0.60;;
18875;SDS011;9570;50.854;13.778;2023-10-31T08:49:14;2.50;;;0.70;;
18875;SDS011;9570;50.854;13.778;2023-10-31T08:51:41;1.63;;;0.80;;
18875;SDS011;9570;50.854;13.778;2023-10-31T08:54:07;1.83;;;0.90;;
18875;SDS011;9570;50.854;13.778;2023-10-31T08:56:33;0.80;;;0.70;;
18875;SDS011;9570;50.854;13.778;2023-10-31T08:58:59;1.43;;;0.70;;
18875;SDS011;9570;50.854;13.778;2023-10-31T09:01:24;0.70;;;0.70;;
18875;SDS011;9570;50.854;13.778;2023-10-31T09:03:51;0.50;;;0.50;;
18875;SDS011;9570;50.854;13.778;2023-10-31T09:06:16;1.60;;;0.70;;
18875;SDS011;9570;50.854;13.778;2023-10-31T09:08:42;1.37;;;0.80;;
18875;SDS011;9570;50.854;13.778;2023-10-31T09:11:07;0.73;;;0.70;;
18875;SDS011;9570;50.854;13.778;2023-10-31T09:13:33;1.77;;;0.90;;
18875;SDS011;9570;50.854;13.778;2023-10-31T09:15:58;2.73;;;0.70;;
18875;SDS011;9570;50.854;13.778;2023-10-31T09:18:25;2.50;;;0.70;;
18875;SDS011;9570;50.854;13.778;2023-10-31T09:20:50;0.50;;;0.50;;
18875;SDS011;9570;50.854;13.778;2023-10-31T09:23:16;0.70;;;0.70;;
18875;SDS011;9570;50.854;13.778;2023-10-31T09:25:42;0.57;;;0.57;;
18875;SDS011;9570;50.854;13.778;2023-10-31T09:28:08;1.90;;;0.60;;
18875;SDS011;9570;50.854;13.778;2023-10-31T09:30:34;0.60;;;0.60;;
18875;SDS011;9570;50.854;13.778;2023-10-31T09:32:59;1.70;;;0.30;;
18875;SDS011;9570;50.854;13.778;2023-10-31T09:35:25;0.37;;;0.37;;
18875;SDS011;9570;50.854;13.778;2023-10-31T09:37:51;0.47;;;0.47;;
18875;SDS011;9570;50.854;13.778;2023-10-31T09:40:17;0.53;;;0.40;;
18875;SDS011;9570;50.854;13.778;2023-10-31T09:42:46;0.57;;;0.40;;
18875;SDS011;9570;50.854;13.778;2023-10-31T09:45:12;0.40;;;0.40;;
18875;SDS011;9570;50.854;13.778;2023-10-31T09:47:38;1.43;;;0.43;;
18875;SDS011;9570;50.854;13.778;2023-10-31T09:50:05;0.47;;;0.47;;
18875;SDS011;9570;50.854;13.778;2023-10-31T09:52:32;0.53;;;0.30;;
18875;SDS011;9570;50.854;13.778;2023-10-31T09:54:57;0.50;;;0.40;;
18875;SDS011;9570;50.854;13.778;2023-10-31T09:57:24;0.90;;;0.43;;
18875;SDS011;9570;50.854;13.778;2023-10-31T09:59:51;0.50;;;0.50;;
18875;SDS011;9570;50.854;13.778;2023-10-31T10:02:16;0.50;;;0.40;;
18875;SDS011;9570;50.854;13.778;2023-10-31T10:04:42;0.40;;;0.40;;
18875;SDS011;9570;50.854;13.778;2023-10-31T10:07:07;0.87;;;0.53;;
18875;SDS011;9570;50.854;13.778;2023-10-31T10:09:33;0.40;;;0.40;;
18875;SDS011;9570;50.854;13.778;2023-10-31T10:11:59;1.33;;;0.70;;
18875;SDS011;9570;50.854;13.778;2023-10-31T10:14:25;0.30;;;0.30;;
18875;SDS011;9570;50.854;13.778;2023-10-31T10:16:53;0.40;;;0.40;;
18875;SDS011;9570;50.854;13.778;2023-10-31T10:19:20;0.53;;;0.40;;
18875;SDS011;9570;50.854;13.778;2023-10-31T10:21:50;0.63;;;0.57;;
18875;SDS011;9570;50.854;13.778;2023-10-31T10:24:18;1.17;;;0.47;;
18875;SDS011;9570;50.854;13.778;2023-10-31T10:26:44;0.73;;;0.53;;
18875;SDS011;9570;50.854;13.778;2023-10-31T10:29:10;0.43;;;0.43;;
18875;SDS011;9570;50.854;13.778;2023-10-31T10:31:35;0.87;;;0.50;;
18875;SDS011;9570;50.854;13.778;2023-10-31T10:34:01;0.30;;;0.30;;
18875;SDS011;9570;50.854;13.778;2023-10-31T10:36:27;0.73;;;0.50;;
18875;SDS011;9570;50.854;13.778;2023-10-31T10:38:56;0.60;;;0.30;;
18875;SDS011;9570;50.854;13.778;2023-10-31T10:41:23;0.80;;;0.60;;
18875;SDS011;9570;50.854;13.778;2023-10-31T10:43:52;0.77;;;0.60;;
18875;SDS011;9570;50.854;13.778;2023-10-31T10:46:23;0.40;;;0.40;;
18875;SDS011;9570;50.854;13.778;2023-10-31T10:48:50;1.37;;;0.50;;
18875;SDS011;9570;50.854;13.778;2023-10-31T10:51:24;0.37;;;0.37;;
18875;SDS011;9570;50.854;13.778;2023-10-31T10:53:58;0.60;;;0.60;;
18875;SDS011;9570;50.854;13.778;2023-10-31T10:56:58;0.40;;;0.40;;
18875;SDS011;9570;50.854;13.778;2023-10-31T10:59:42;0.30;;;0.30;;
18875;SDS011;9570;50.854;13.778;2023-10-31T11:02:15;0.50;;;0.50;;
18875;SDS011;9570;50.854;13.778;2023-10-31T11:04:42;1.27;;;0.50;;
18875;SDS011;9570;50.854;13.778;2023-10-31T11:07:09;0.50;;;0.50;;
18875;SDS011;9570;50.854;13.778;2023-10-31T11:09:35;0.87;;;0.70;;
18875;SDS011;9570;50.854;13.778;2023-10-31T11:12:03;0.67;;;0.60;;
18875;SDS011;9570;50.854;13.778;2023-10-31T11:14:30;0.70;;;0.60;;
18875;SDS011;9570;50.854;13.778;2023-10-31T11:16:58;0.73;;;0.53;;
18875;SDS011;9570;50.854;13.778;2023-10-31T11:19:28;2.40;;;0.60;;
18875;SDS011;9570;50.854;13.778;2023-10-31T11:21:59;0.60;;;0.60;;
18875;SDS011;9570;50.854;13.778;2023-10-31T11:24:28;0.53;;;0.53;;
18875;SDS011;9570;50.854;13.778;2023-10-31T11:26:59;0.70;;;0.60;;
18875;SDS011;9570;50.854;13.778;2023-10-31T11:29:26;0.83;;;0.70;;
18875;SDS011;9570;50.854;13.778;2023-10-31T11:31:55;0.73;;;0.60;;
18875;SDS011;9570;50.854;13.778;2023-10-31T11:34:21;0.80;;;0.50;;
18875;SDS011;9570;50.854;13.778;2023-10-31T11:36:47;0.60;;;0.60;;
18875;SDS011;9570;50.854;13.778;2023-10-31T11:39:13;1.27;;;0.60;;
18875;SDS011;9570;50.854;13.778;2023-10-31T11:41:40;0.60;;;0.50;;
18875;SDS011;9570;50.854;13.778;2023-10-31T11:44:14;0.60;;;0.50;;
18875;SDS011;9570;50.854;13.778;2023-10-31T11:46:40;0.40;;;0.40;;
18875;SDS011;9570;50.854;13.778;2023-10-31T11:49:05;0.87;;;0.50;;
18875;SDS011;9570;50.854;13.778;2023-10-31T11:51:32;1.43;;;0.50;;
18875;SDS011;9570;50.854;13.778;2023-10-31T11:53:59;0.90;;;0.63;;
18875;SDS011;9570;50.854;13.778;2023-10-31T11:56:26;0.37;;;0.37;;
18875;SDS011;9570;50.854;13.778;2023-10-31T11:58:55;0.57;;;0.47;;
18875;SDS011;9570;50.854;13.778;2023-10-31T12:01:28;0.57;;;0.50;;
18875;SDS011;9570;50.854;13.778;2023-10-31T12:03:53;1.60;;;0.47;;
18875;SDS011;9570;50.854;13.778;2023-10-31T12:06:19;0.30;;;0.30;;
18875;SDS011;9570;50.854;13.778;2023-10-31T12:08:46;1.33;;;0.40;;
18875;SDS011;9570;50.854;13.778;2023-10-31T12:11:14;0.47;;;0.47;;
18875;SDS011;9570;50.854;13.778;2023-10-31T12:14:00;0.50;;;0.50;;
18875;SDS011;9570;50.854;13.778;2023-10-31T12:16:32;0.70;;;0.57;;
18875;SDS011;9570;50.854;13.778;2023-10-31T12:19:01;0.43;;;0.43;;
18875;SDS011;9570;50.854;13.778;2023-10-31T12:21:41;1.47;;;0.70;;
18875;SDS011;9570;50.854;13.778;2023-10-31T12:24:15;0.60;;;0.50;;
18875;SDS011;9570;50.854;13.778;2023-10-31T12:26:43;0.60;;;0.40;;
18875;SDS011;9570;50.854;13.778;2023-10-31T12:29:20;0.50;;;0.30;;
18875;SDS011;9570;50.854;13.778;2023-10-31T12:34:17;0.50;;;0.50;;
18875;SDS011;9570;50.854;13.778;2023-10-31T12:36:44;0.70;;;0.50;;
18875;SDS011;9570;50.854;13.778;2023-10-31T12:39:11;0.53;;;0.53;;
18875;SDS011;9570;50.854;13.778;2023-10-31T12:41:38;0.80;;;0.53;;
18875;SDS011;9570;50.854;13.778;2023-10-31T12:44:05;0.83;;;0.60;;
18875;SDS011;9570;50.854;13.778;2023-10-31T12:46:31;2.03;;;0.50;;
18875;SDS011;9570;50.854;13.778;2023-10-31T12:48:57;0.53;;;0.53;;
18875;SDS011;9570;50.854;13.778;2023-10-31T12:51:23;0.93;;;0.50;;
18875;SDS011;9570;50.854;13.778;2023-10-31T12:53:52;0.90;;;0.60;;
18875;SDS011;9570;50.854;13.778;2023-10-31T12:59:06;0.80;;;0.60;;
18875;SDS011;9570;50.854;13.778;2023-10-31T13:01:34;0.70;;;0.70;;
18875;SDS011;9570;50.854;13.778;2023-10-31T13:04:01;0.60;;;0.50;;
18875;SDS011;9570;50.854;13.778;2023-10-31T13:06:30;0.63;;;0.50;;
18875;SDS011;9570;50.854;13.778;2023-10-31T13:08:56;0.40;;;0.40;;
18875;SDS011;9570;50.854;13.778;2023-10-31T13:11:31;0.40;;;0.40;;
18875;SDS011;9570;50.854;13.778;2023-10-31T13:13:57;0.50;;;0.50;;
18875;SDS011;9570;50.854;13.778;2023-10-31T13:16:23;2.43;;;0.90;;
18875;SDS011;9570;50.854;13.778;2023-10-31T13:18:51;0.50;;;0.50;;
18875;SDS011;9570;50.854;13.778;2023-10-31T13:21:17;0.50;;;0.50;;
18875;SDS011;9570;50.854;13.778;2023-10-31T13:23:43;2.30;;;0.70;;
18875;SDS011;9570;50.854;13.778;2023-10-31T13:26:11;0.60;;;0.60;;
18875;SDS011;9570;50.854;13.778;2023-10-31T13:28:37;0.97;;;0.80;;
18875;SDS011;9570;50.854;13.778;2023-10-31T13:31:04;1.30;;;0.50;;
18875;SDS011;9570;50.854;13.778;2023-10-31T13:33:29;0.90;;;0.60;;
18875;SDS011;9570;50.854;13.778;2023-10-31T13:35:55;1.33;;;0.60;;
18875;SDS011;9570;50.854;13.778;2023-10-31T13:38:20;0.97;;;0.60;;
18875;SDS011;9570;50.854;13.778;2023-10-31T13:40:46;1.23;;;0.60;;
18875;SDS011;9570;50.854;13.778;2023-10-31T13:43:11;0.87;;;0.80;;
18875;SDS011;9570;50.854;13.778;2023-10-31T13:45:37;0.70;;;0.70;;
18875;SDS011;9570;50.854;13.778;2023-10-31T13:48:03;1.17;;;0.80;;
18875;SDS011;9570;50.854;13.778;2023-10-31T13:50:28;1.00;;;0.53;;
18875;SDS011;9570;50.854;13.778;2023-10-31T13:52:54;0.90;;;0.63;;
18875;SDS011;9570;50.854;13.778;2023-10-31T13:55:20;1.30;;;0.80;;
18875;SDS011;9570;50.854;13.778;2023-10-31T13:57:46;0.90;;;0.80;;
18875;SDS011;9570;50.854;13.778;2023-10-31T14:00:12;1.20;;;0.83;;
18875;SDS011;9570;50.854;13.778;2023-10-31T14:02:38;2.83;;;0.77;;
18875;SDS011;9570;50.854;13.778;2023-10-31T14:05:05;0.80;;;0.70;;
18875;SDS011;9570;50.854;13.778;2023-10-31T14:07:30;0.60;;;0.60;;
18875;SDS011;9570;50.854;13.778;2023-10-31T14:09:56;0.60;;;0.60;;
18875;SDS011;9570;50.854;13.778;2023-10-31T14:12:22;0.77;;;0.77;;
18875;SDS011;9570;50.854;13.778;2023-10-31T14:14:48;1.03;;;0.80;;
18875;SDS011;9570;50.854;13.778;2023-10-31T14:17:17;1.07;;;0.77;;
18875;SDS011;9570;50.854;13.778;2023-10-31T14:19:43;0.67;;;0.60;;
18875;SDS011;9570;50.854;13.778;2023-10-31T14:22:08;1.77;;;0.90;;
18875;SDS011;9570;50.854;13.778;2023-10-31T14:24:34;1.53;;;0.83;;
18875;SDS011;9570;50.854;13.778;2023-10-31T14:27:00;0.60;;;0.60;;
18875;SDS011;9570;50.854;13.778;2023-10-31T14:29:26;1.17;;;0.80;;
18875;SDS011;9570;50.854;13.778;2023-10-31T14:31:51;0.70;;;0.70;;
18875;SDS011;9570;50.854;13.778;2023-10-31T14:34:19;1.00;;;0.90;;
18875;SDS011;9570;50.854;13.778;2023-10-31T14:36:45;1.73;;;0.80;;
18875;SDS011;9570;50.854;13.778;2023-10-31T14:39:11;1.57;;;1.00;;
18875;SDS011;9570;50.854;13.778;2023-10-31T14:41:37;1.03;;;0.70;;
18875;SDS011;9570;50.854;13.778;2023-10-31T14:44:02;1.43;;;1.10;;
18875;SDS011;9570;50.854;13.778;2023-10-31T14:46:28;1.30;;;0.80;;
18875;SDS011;9570;50.854;13.778;2023-10-31T14:48:55;1.43;;;0.90;;